createdAt,value
2023-05-05T00:00:00.236Z,6.80
2023-05-05T00:02:26.797Z,7.00
2023-05-05T00:04:53.332Z,7.50
2023-05-05T00:07:20.065Z,7.80
2023-05-05T00:09:46.571Z,7.70
2023-05-05T00:12:13.149Z,7.33
2023-05-05T00:14:39.641Z,8.00
2023-05-05T00:17:06.205Z,7.87
2023-05-05T00:19:32.788Z,7.93
2023-05-05T00:21:59.297Z,7.93
2023-05-05T00:24:25.774Z,8.60
2023-05-05T00:26:52.328Z,8.23
2023-05-05T00:29:18.862Z,7.93
2023-05-05T00:31:45.352Z,8.37
2023-05-05T00:34:11.867Z,8.17
2023-05-05T00:36:38.458Z,8.30
2023-05-05T00:39:04.955Z,9.13
2023-05-05T00:41:31.472Z,8.50
2023-05-05T00:43:57.994Z,7.80
2023-05-05T00:46:27.909Z,8.90
2023-05-05T00:48:54.893Z,8.47
2023-05-05T00:51:22.521Z,8.50
2023-05-05T00:53:49.463Z,8.80
2023-05-05T00:56:19.271Z,8.80
2023-05-05T00:58:45.967Z,8.60
2023-05-05T01:01:12.672Z,8.20
2023-05-05T01:03:41.085Z,8.57
2023-05-05T01:06:32.789Z,8.73
2023-05-05T01:09:17.032Z,9.10
2023-05-05T01:11:56.437Z,8.30
2023-05-05T01:14:39.597Z,9.03
2023-05-05T01:17:28.810Z,9.83
2023-05-05T01:20:21.465Z,9.23
2023-05-05T01:22:56.883Z,9.47
2023-05-05T01:25:48.855Z,9.30
2023-05-05T01:28:31.073Z,9.53
2023-05-05T01:31:17.795Z,10.30
2023-05-05T01:33:48.663Z,10.23
2023-05-05T01:36:23.218Z,9.97
2023-05-05T01:38:56.784Z,10.17
2023-05-05T01:41:31.843Z,9.70
2023-05-05T01:44:01.597Z,10.10
2023-05-05T01:46:28.174Z,10.40
2023-05-05T01:48:56.638Z,10.93
2023-05-05T01:51:24.505Z,10.87
2023-05-05T01:54:00.503Z,11.10
2023-05-05T01:56:29.982Z,10.60
2023-05-05T01:58:59.026Z,10.93
2023-05-05T02:01:26.491Z,10.70
2023-05-05T02:03:56.674Z,11.70
2023-05-05T02:06:24.578Z,11.13
2023-05-05T02:08:53.012Z,11.83
2023-05-05T02:11:21.865Z,11.57
2023-05-05T02:13:50.413Z,12.47
2023-05-05T02:16:18.454Z,12.13
2023-05-05T02:18:46.954Z,13.00
2023-05-05T02:21:14.661Z,13.50
2023-05-05T02:23:41.269Z,13.00
2023-05-05T02:26:10.233Z,13.47
2023-05-05T02:28:48.532Z,14.30
2023-05-05T02:31:17.013Z,14.47
2023-05-05T02:33:45.544Z,14.57
2023-05-05T02:36:17.753Z,14.70
2023-05-05T02:38:46.316Z,14.57
2023-05-05T02:41:16.861Z,15.33
2023-05-05T02:43:44.350Z,14.77
2023-05-05T02:46:10.945Z,14.13
2023-05-05T02:48:37.501Z,13.13
2023-05-05T02:51:04.146Z,14.47
2023-05-05T02:53:30.781Z,14.33
2023-05-05T02:56:06.867Z,15.00
2023-05-05T02:58:42.452Z,14.30
2023-05-05T03:01:49.358Z,14.60
2023-05-05T03:04:22.265Z,14.53
2023-05-05T03:06:53.432Z,14.13
2023-05-05T03:09:29.033Z,14.97
2023-05-05T03:12:04.154Z,14.33
2023-05-05T03:14:36.335Z,13.97
2023-05-05T03:17:03.299Z,13.80
2023-05-05T03:19:30.991Z,14.50
2023-05-05T03:21:57.974Z,14.80
2023-05-05T03:24:24.557Z,14.87
2023-05-05T03:26:51.143Z,14.73
2023-05-05T03:29:17.677Z,13.93
2023-05-05T03:31:44.304Z,14.60
2023-05-05T03:34:10.881Z,15.27
2023-05-05T03:36:37.923Z,14.73
2023-05-05T03:39:04.442Z,16.03
2023-05-05T03:41:30.959Z,17.00
2023-05-05T03:43:57.804Z,16.27
2023-05-05T03:46:24.418Z,15.97
2023-05-05T03:48:51.465Z,17.00
2023-05-05T03:51:18.030Z,17.07
2023-05-05T03:53:44.700Z,17.93
2023-05-05T03:56:11.204Z,17.50
2023-05-05T03:58:37.746Z,17.33
2023-05-05T04:01:04.891Z,17.73
2023-05-05T04:03:31.575Z,17.13
2023-05-05T04:05:58.187Z,17.20
2023-05-05T04:08:24.786Z,17.97
2023-05-05T04:10:51.510Z,18.37
2023-05-05T04:13:18.378Z,18.63
2023-05-05T04:15:46.013Z,19.57
2023-05-05T04:18:12.984Z,18.70
2023-05-05T04:20:39.552Z,19.53
2023-05-05T04:23:06.142Z,19.07
2023-05-05T04:25:32.724Z,18.73
2023-05-05T04:27:59.279Z,18.87
2023-05-05T04:30:25.870Z,20.40
2023-05-05T04:32:53.060Z,19.43
2023-05-05T04:35:19.661Z,21.10
2023-05-05T04:37:46.245Z,19.17
2023-05-05T04:40:13.095Z,19.53
2023-05-05T04:42:39.769Z,19.90
2023-05-05T04:45:06.923Z,20.03
2023-05-05T04:47:37.853Z,19.90
2023-05-05T04:50:05.885Z,19.50
2023-05-05T04:52:32.934Z,19.70
2023-05-05T04:54:59.669Z,20.53
2023-05-05T04:57:26.187Z,20.63
2023-05-05T04:59:52.716Z,19.83
2023-05-05T05:02:19.416Z,20.33
2023-05-05T05:04:46.691Z,20.10
2023-05-05T05:07:14.925Z,19.10
2023-05-05T05:09:41.509Z,20.63
2023-05-05T05:12:09.648Z,19.60
2023-05-05T05:14:37.706Z,20.97
2023-05-05T05:17:04.715Z,20.67
2023-05-05T05:19:31.213Z,20.07
2023-05-05T05:21:57.834Z,22.37
2023-05-05T05:24:27.246Z,21.07
2023-05-05T05:26:53.855Z,21.43
2023-05-05T05:29:20.462Z,21.30
2023-05-05T05:31:47.007Z,21.27
2023-05-05T05:34:13.553Z,21.17
2023-05-05T05:36:40.080Z,22.43
2023-05-05T05:39:06.634Z,22.03
2023-05-05T05:41:33.191Z,21.60
2023-05-05T05:43:59.750Z,22.70
2023-05-05T05:46:26.342Z,20.87
2023-05-05T05:48:52.968Z,22.10
2023-05-05T05:51:19.479Z,21.13
2023-05-05T05:53:45.956Z,21.17
2023-05-05T05:56:12.560Z,20.47
2023-05-05T05:58:39.249Z,21.00
2023-05-05T06:01:05.881Z,20.70
2023-05-05T06:03:32.508Z,21.17
2023-05-05T06:05:59.117Z,20.43
2023-05-05T06:08:26.689Z,21.07
2023-05-05T06:10:53.360Z,19.97
2023-05-05T06:13:19.894Z,19.63
2023-05-05T06:15:46.470Z,19.50
2023-05-05T06:18:13.128Z,19.40
2023-05-05T06:20:39.860Z,18.20
2023-05-05T06:23:06.775Z,17.70
2023-05-05T06:25:33.363Z,17.63
2023-05-05T06:28:00.089Z,18.20
2023-05-05T06:30:26.751Z,17.23
2023-05-05T06:32:54.159Z,17.30
2023-05-05T06:35:22.374Z,16.77
2023-05-05T06:37:48.894Z,16.87
2023-05-05T06:40:15.500Z,17.33
2023-05-05T06:42:41.997Z,16.10
2023-05-05T06:45:09.099Z,17.20
2023-05-05T06:47:36.255Z,17.83
2023-05-05T06:50:03.640Z,17.93
2023-05-05T06:52:30.219Z,19.13
2023-05-05T06:54:56.759Z,18.10
2023-05-05T06:57:23.558Z,17.13
2023-05-05T06:59:50.068Z,16.80
2023-05-05T07:02:16.582Z,15.60
2023-05-05T07:04:44.193Z,14.73
2023-05-05T07:07:10.732Z,10.90
2023-05-05T07:09:37.273Z,10.47
2023-05-05T07:12:04.519Z,10.43
2023-05-05T07:14:31.055Z,10.03
2023-05-05T07:16:57.840Z,10.27
2023-05-05T07:19:24.575Z,10.53
2023-05-05T07:21:51.881Z,10.10
2023-05-05T07:24:18.394Z,11.13
2023-05-05T07:26:45.023Z,11.33
2023-05-05T07:29:11.716Z,10.87
2023-05-05T07:31:38.324Z,10.97
2023-05-05T07:34:04.826Z,10.53
2023-05-05T07:36:32.020Z,12.30
2023-05-05T07:38:58.616Z,11.60
2023-05-05T07:41:25.209Z,11.67
2023-05-05T07:43:51.722Z,10.67
2023-05-05T07:46:18.482Z,10.40
2023-05-05T07:48:45.139Z,10.10
2023-05-05T07:51:11.707Z,11.17
2023-05-05T07:53:38.262Z,9.90
2023-05-05T07:56:04.814Z,10.17
2023-05-05T07:58:31.342Z,9.00
2023-05-05T08:00:58.124Z,10.03
2023-05-05T08:03:25.165Z,10.57
2023-05-05T08:05:54.445Z,10.10
2023-05-05T08:08:25.771Z,10.43
2023-05-05T08:10:55.392Z,9.97
2023-05-05T08:13:21.898Z,9.67
2023-05-05T08:15:48.451Z,9.48
2023-05-05T08:18:15.217Z,8.77
2023-05-05T08:20:48.095Z,9.77
2023-05-05T08:23:14.587Z,9.73
2023-05-05T08:25:44.930Z,9.45
2023-05-05T08:28:15.724Z,8.65
2023-05-05T08:30:47.161Z,8.55
2023-05-05T08:33:17.017Z,9.40
2023-05-05T08:35:45.632Z,9.98
2023-05-05T08:38:17.696Z,8.00
2023-05-05T08:40:51.797Z,8.45
2023-05-05T08:43:23.429Z,8.85
2023-05-05T08:45:53.902Z,8.10
2023-05-05T08:48:22.997Z,8.05
2023-05-05T08:50:59.609Z,7.35
2023-05-05T08:53:44.233Z,7.90
2023-05-05T08:56:13.600Z,7.97
2023-05-05T08:58:41.795Z,7.85
2023-05-05T09:01:08.712Z,8.60
2023-05-05T09:03:37.334Z,6.88
2023-05-05T09:06:04.705Z,5.18
2023-05-05T09:08:32.773Z,6.95
2023-05-05T09:11:01.140Z,6.20
2023-05-05T09:13:27.722Z,7.20
2023-05-05T09:15:54.275Z,6.55
2023-05-05T09:18:20.894Z,6.20
2023-05-05T09:20:47.498Z,6.82
2023-05-05T09:23:21.353Z,5.50
2023-05-05T09:26:02.093Z,7.13
2023-05-05T09:28:29.088Z,5.47
2023-05-05T09:30:55.874Z,6.80
2023-05-05T09:33:31.940Z,6.38
2023-05-05T09:35:58.754Z,6.20
2023-05-05T09:38:25.374Z,5.95
2023-05-05T09:40:53.958Z,5.20
2023-05-05T09:43:22.346Z,5.10
2023-05-05T09:45:49.507Z,5.50
2023-05-05T09:48:30.049Z,5.78
2023-05-05T09:50:57.977Z,5.78
2023-05-05T09:53:25.757Z,5.47
2023-05-05T09:55:56.620Z,5.32
2023-05-05T09:58:28.629Z,4.85
2023-05-05T10:00:56.943Z,4.75
2023-05-05T10:03:24.247Z,4.97
2023-05-05T10:05:59.545Z,4.95
2023-05-05T10:08:28.320Z,4.63
2023-05-05T10:11:01.063Z,4.30
2023-05-05T10:13:28.651Z,4.22
2023-05-05T10:15:57.612Z,4.70
2023-05-05T10:18:26.870Z,4.00
2023-05-05T10:21:01.619Z,3.60
2023-05-05T10:23:39.157Z,3.95
2023-05-05T10:26:13.240Z,3.75
2023-05-05T10:28:56.206Z,3.90
2023-05-05T10:31:45.083Z,5.38
2023-05-05T10:34:25.096Z,5.20
2023-05-05T10:36:51.919Z,6.00
2023-05-05T10:39:19.866Z,7.00
2023-05-05T10:41:47.994Z,7.00
2023-05-05T10:44:15.359Z,6.80
2023-05-05T10:46:44.022Z,7.70
2023-05-05T10:49:24.924Z,7.33
2023-05-05T10:52:36.200Z,6.80
2023-05-05T10:55:16.659Z,6.37
2023-05-05T10:57:45.709Z,6.80
2023-05-05T11:00:38.449Z,7.60
2023-05-05T11:03:17.474Z,7.60
2023-05-05T11:06:04.042Z,6.23
2023-05-05T11:08:32.519Z,4.60
2023-05-05T11:10:59.967Z,4.87
2023-05-05T11:13:27.177Z,4.20
2023-05-05T11:15:57.707Z,4.47
2023-05-05T11:18:36.110Z,3.80
2023-05-05T11:21:03.712Z,3.73
2023-05-05T11:23:30.486Z,4.10
2023-05-05T11:25:57.634Z,4.23
2023-05-05T11:28:30.947Z,3.80
2023-05-05T11:30:58.495Z,3.70
2023-05-05T11:33:38.530Z,4.10
2023-05-05T11:36:12.973Z,4.37
2023-05-05T11:38:55.552Z,4.00
2023-05-05T11:41:43.779Z,4.60
2023-05-05T11:44:18.245Z,4.77
2023-05-05T11:46:51.069Z,4.67
2023-05-05T11:49:37.794Z,4.40
2023-05-05T11:52:07.933Z,4.20
2023-05-05T11:54:47.598Z,4.05
2023-05-05T11:57:15.707Z,3.90
2023-05-05T12:00:05.033Z,3.55
2023-05-05T12:02:32.127Z,3.60
2023-05-05T12:04:59.934Z,3.50
2023-05-05T12:07:32.076Z,3.40
2023-05-05T12:09:59.231Z,3.30
2023-05-05T12:12:36.406Z,3.15
2023-05-05T12:15:03.562Z,3.80
2023-05-05T12:17:41.270Z,3.20
2023-05-05T12:20:09.501Z,3.40
2023-05-05T12:22:36.473Z,3.47
2023-05-05T12:25:05.307Z,3.67
2023-05-05T12:27:32.051Z,3.70
2023-05-05T12:30:14.817Z,3.50
2023-05-05T12:32:42.356Z,3.60
2023-05-05T12:35:10.372Z,3.70
2023-05-05T12:37:37.177Z,3.67
2023-05-05T12:40:06.087Z,3.72
2023-05-05T12:42:38.767Z,3.78
2023-05-05T12:45:07.262Z,4.10
2023-05-05T12:47:34.865Z,3.60
2023-05-05T12:50:03.217Z,3.60
2023-05-05T12:52:44.619Z,3.40
2023-05-05T12:55:12.085Z,3.63
2023-05-05T12:57:39.350Z,3.70
2023-05-05T13:00:16.454Z,3.85
2023-05-05T13:02:43.155Z,3.55
2023-05-05T13:05:09.997Z,3.78
2023-05-05T13:07:48.875Z,2.90
2023-05-05T13:10:15.423Z,3.15
2023-05-05T13:12:41.971Z,3.53
2023-05-05T13:15:09.510Z,4.25
2023-05-05T13:17:36.197Z,4.50
2023-05-05T13:20:02.773Z,4.30
2023-05-05T13:22:29.276Z,4.37
2023-05-05T13:24:55.986Z,4.40
2023-05-05T13:27:22.592Z,4.20
2023-05-05T13:29:49.111Z,3.40
2023-05-05T13:32:15.912Z,3.40
2023-05-05T13:34:43.453Z,3.63
2023-05-05T13:37:10.143Z,3.60
2023-05-05T13:39:36.851Z,3.40
2023-05-05T13:42:03.501Z,3.50
2023-05-05T13:44:30.092Z,3.30
2023-05-05T13:46:56.790Z,3.80
2023-05-05T13:49:23.665Z,3.30
2023-05-05T13:51:50.649Z,3.60
2023-05-05T13:54:17.225Z,3.80
2023-05-05T13:56:43.873Z,3.80
2023-05-05T13:59:10.649Z,3.93
2023-05-05T14:01:37.582Z,3.93
2023-05-05T14:04:05.670Z,3.90
2023-05-05T14:06:33.392Z,4.60
2023-05-05T14:09:00.131Z,4.20
2023-05-05T14:11:26.908Z,4.03
2023-05-05T14:13:55.410Z,4.13
2023-05-05T14:16:21.999Z,5.23
2023-05-05T14:18:48.637Z,4.60
2023-05-05T14:21:15.250Z,4.60
2023-05-05T14:23:41.775Z,4.10
2023-05-05T14:26:08.905Z,4.10
2023-05-05T14:28:35.729Z,4.23
2023-05-05T14:31:02.258Z,4.10
2023-05-05T14:33:28.865Z,4.23
2023-05-05T14:35:55.597Z,4.63
2023-05-05T14:38:22.109Z,4.17
2023-05-05T14:40:48.724Z,3.80
2023-05-05T14:43:15.582Z,3.70
2023-05-05T14:45:42.224Z,4.00
2023-05-05T14:48:09.005Z,4.10
2023-05-05T14:50:35.537Z,3.90
2023-05-05T14:53:02.106Z,4.17
2023-05-05T14:55:28.700Z,11.03
2023-05-05T14:57:55.294Z,8.10
2023-05-05T15:00:21.843Z,3.80
2023-05-05T15:02:48.551Z,3.70
2023-05-05T15:05:15.442Z,3.50
2023-05-05T15:07:42.051Z,9.53
2023-05-05T15:10:09.056Z,3.07
2023-05-05T15:12:35.651Z,4.05
2023-05-05T15:15:02.402Z,3.10
2023-05-05T15:17:30.569Z,3.20
2023-05-05T15:19:57.241Z,4.25
2023-05-05T15:22:23.751Z,2.90
2023-05-05T15:24:50.497Z,3.03
2023-05-05T15:27:17.992Z,2.85
2023-05-05T15:29:44.513Z,3.30
2023-05-05T15:32:11.354Z,3.15
2023-05-05T15:34:37.938Z,2.90
2023-05-05T15:37:04.507Z,2.97
2023-05-05T15:39:31.015Z,3.20
2023-05-05T15:41:57.546Z,2.78
2023-05-05T15:44:24.062Z,3.20
2023-05-05T15:46:50.850Z,3.17
2023-05-05T15:49:17.398Z,3.40
2023-05-05T15:51:43.943Z,2.90
2023-05-05T15:54:10.556Z,3.20
2023-05-05T15:56:37.132Z,3.60
2023-05-05T15:59:03.659Z,3.33
2023-05-05T16:01:30.433Z,3.20
2023-05-05T16:03:57.765Z,3.07
2023-05-05T16:06:24.276Z,3.40
2023-05-05T16:08:51.611Z,3.57
2023-05-05T16:11:19.457Z,4.00
2023-05-05T16:13:47.337Z,3.37
2023-05-05T16:16:13.880Z,3.77
2023-05-05T16:18:40.418Z,3.47
2023-05-05T16:21:06.927Z,3.67
2023-05-05T16:23:33.432Z,3.87
2023-05-05T16:25:59.937Z,4.20
2023-05-05T16:28:26.665Z,4.33
2023-05-05T16:30:53.165Z,4.50
2023-05-05T16:33:19.670Z,4.73
2023-05-05T16:35:46.314Z,5.30
2023-05-05T16:38:13.329Z,5.57
2023-05-05T16:40:40.290Z,5.70
2023-05-05T16:43:06.801Z,6.10
2023-05-05T16:45:33.315Z,7.20
2023-05-05T16:47:59.886Z,7.37
2023-05-05T16:50:26.604Z,6.23
2023-05-05T16:52:53.117Z,7.27
2023-05-05T16:55:19.818Z,6.87
2023-05-05T16:57:47.730Z,7.47
2023-05-05T17:00:15.347Z,6.90
2023-05-05T17:02:41.922Z,6.83
2023-05-05T17:05:09.043Z,7.30
2023-05-05T17:07:35.711Z,7.90
2023-05-05T17:10:02.216Z,6.90
2023-05-05T17:12:28.981Z,7.17
2023-05-05T17:14:55.490Z,6.47
2023-05-05T17:17:22.371Z,6.90
2023-05-05T17:19:49.001Z,6.77
2023-05-05T17:22:16.154Z,7.33
2023-05-05T17:24:42.916Z,7.50
2023-05-05T17:27:09.527Z,7.53
2023-05-05T17:29:40.634Z,7.03
2023-05-05T17:32:09.370Z,7.37
2023-05-05T17:34:36.250Z,6.87
2023-05-05T17:37:02.964Z,7.13
2023-05-05T17:39:29.924Z,6.30
2023-05-05T17:41:56.476Z,5.90
2023-05-05T17:44:23.056Z,6.17
2023-05-05T17:46:49.657Z,6.37
2023-05-05T17:49:16.488Z,6.37
2023-05-05T17:51:43.007Z,6.40
2023-05-05T17:54:09.515Z,6.10
2023-05-05T17:56:36.664Z,5.87
2023-05-05T17:59:03.315Z,5.80
2023-05-05T18:01:29.884Z,6.00
2023-05-05T18:03:56.912Z,5.93
2023-05-05T18:06:23.721Z,6.40
2023-05-05T18:08:50.573Z,6.47
2023-05-05T18:11:19.195Z,5.87
2023-05-05T18:13:46.434Z,6.60
2023-05-05T18:16:13.208Z,6.07
2023-05-05T18:18:41.125Z,7.20
2023-05-05T18:21:11.832Z,7.13
2023-05-05T18:23:39.282Z,7.57
2023-05-05T18:26:06.530Z,7.80
2023-05-05T18:28:33.072Z,7.00
2023-05-05T18:30:59.624Z,6.80
2023-05-05T18:33:26.411Z,5.47
2023-05-05T18:35:53.100Z,6.10
2023-05-05T18:38:19.693Z,6.27
2023-05-05T18:40:46.272Z,6.83
2023-05-05T18:43:12.844Z,6.30
2023-05-05T18:45:39.465Z,6.73
2023-05-05T18:48:06.214Z,6.80
2023-05-05T18:50:33.175Z,6.83
2023-05-05T18:52:59.763Z,7.17
2023-05-05T18:55:26.353Z,6.57
2023-05-05T18:57:53.215Z,7.53
2023-05-05T19:00:20.597Z,6.67
2023-05-05T19:02:47.125Z,7.13
2023-05-05T19:05:13.683Z,6.90
2023-05-05T19:07:40.675Z,6.70
2023-05-05T19:10:08.226Z,7.23
2023-05-05T19:12:34.860Z,6.83
2023-05-05T19:15:01.781Z,7.77
2023-05-05T19:17:28.382Z,8.00
2023-05-05T19:19:54.931Z,7.97
2023-05-05T19:22:23.328Z,8.10
2023-05-05T19:24:49.928Z,8.17
2023-05-05T19:27:16.990Z,7.63
2023-05-05T19:29:43.928Z,8.07
2023-05-05T19:32:10.753Z,8.53
2023-05-05T19:34:37.455Z,8.93
2023-05-05T19:37:04.006Z,9.13
2023-05-05T19:39:31.100Z,9.27
2023-05-05T19:41:57.620Z,8.87
2023-05-05T19:44:24.423Z,9.63
2023-05-05T19:46:52.701Z,8.83
2023-05-05T19:49:19.382Z,9.03
2023-05-05T19:51:49.593Z,9.90
2023-05-05T19:54:16.180Z,10.90
2023-05-05T19:56:42.817Z,10.00
2023-05-05T19:59:09.417Z,10.80
2023-05-05T20:01:36.057Z,10.50
2023-05-05T20:04:03.482Z,9.87
2023-05-05T20:06:30.019Z,9.97
2023-05-05T20:08:56.517Z,10.60
2023-05-05T20:11:23.046Z,10.67
2023-05-05T20:13:50.000Z,10.73
2023-05-05T20:16:16.954Z,10.23
2023-05-05T20:18:44.031Z,10.90
2023-05-05T20:21:10.683Z,10.83
2023-05-05T20:23:37.429Z,11.90
2023-05-05T20:26:04.101Z,11.57
2023-05-05T20:28:31.554Z,12.07
2023-05-05T20:30:58.179Z,10.97
2023-05-05T20:33:24.802Z,11.50
2023-05-05T20:35:51.350Z,12.20
2023-05-05T20:38:18.162Z,15.30
2023-05-05T20:40:44.757Z,13.83
2023-05-05T20:43:11.828Z,11.50
2023-05-05T20:45:38.369Z,13.30
2023-05-05T20:48:07.184Z,13.60
2023-05-05T20:50:36.531Z,12.77
2023-05-05T20:53:03.072Z,13.20
2023-05-05T20:55:29.688Z,13.70
2023-05-05T20:57:56.290Z,13.07
2023-05-05T21:00:22.992Z,13.50
2023-05-05T21:02:49.555Z,13.37
2023-05-05T21:05:16.214Z,12.50
2023-05-05T21:07:42.806Z,12.70
2023-05-05T21:10:10.083Z,12.10
2023-05-05T21:12:36.954Z,12.83
2023-05-05T21:15:03.952Z,12.20
2023-05-05T21:17:30.597Z,11.53
2023-05-05T21:19:57.350Z,10.40
2023-05-05T21:22:23.927Z,9.67
2023-05-05T21:24:50.933Z,9.57
2023-05-05T21:27:17.791Z,9.60
2023-05-05T21:29:44.296Z,10.17
2023-05-05T21:32:11.765Z,8.93
2023-05-05T21:34:39.467Z,10.47
2023-05-05T21:37:06.389Z,10.47
2023-05-05T21:39:33.428Z,11.43
2023-05-05T21:42:00.732Z,10.33
2023-05-05T21:44:28.041Z,10.73
2023-05-05T21:46:55.279Z,9.90
2023-05-05T21:49:22.007Z,10.73
2023-05-05T21:51:48.726Z,10.07
2023-05-05T21:54:15.722Z,10.10
2023-05-05T21:56:42.264Z,9.53
2023-05-05T21:59:08.862Z,9.33
2023-05-05T22:01:35.503Z,8.20
2023-05-05T22:04:02.183Z,9.37
2023-05-05T22:06:28.677Z,9.50
2023-05-05T22:08:56.905Z,9.77
2023-05-05T22:11:23.567Z,8.93
2023-05-05T22:13:50.112Z,9.40
2023-05-05T22:16:19.808Z,9.80
2023-05-05T22:18:46.815Z,9.00
2023-05-05T22:21:13.418Z,9.87
2023-05-05T22:23:41.674Z,9.10
2023-05-05T22:26:09.068Z,9.03
2023-05-05T22:28:36.270Z,9.07
2023-05-05T22:31:02.855Z,9.40
2023-05-05T22:33:29.442Z,9.57
2023-05-05T22:35:56.603Z,11.07
2023-05-05T22:38:23.141Z,9.67
2023-05-05T22:40:49.858Z,10.03
2023-05-05T22:43:16.419Z,11.47
2023-05-05T22:45:43.512Z,10.10
2023-05-05T22:48:10.268Z,10.20
2023-05-05T22:50:37.580Z,9.80
2023-05-05T22:53:04.139Z,10.13
2023-05-05T22:55:30.751Z,9.73
2023-05-05T22:57:57.322Z,9.80
2023-05-05T23:00:24.054Z,9.53
2023-05-05T23:02:50.741Z,9.17
2023-05-05T23:05:17.353Z,8.63
2023-05-05T23:07:43.896Z,9.03
2023-05-05T23:10:10.967Z,8.90
2023-05-05T23:12:37.581Z,9.07
2023-05-05T23:15:04.924Z,8.73
2023-05-05T23:17:31.501Z,9.40
2023-05-05T23:19:58.084Z,8.53
2023-05-05T23:22:24.665Z,8.97
2023-05-05T23:24:51.190Z,9.37
2023-05-05T23:27:17.712Z,9.43
2023-05-05T23:29:44.362Z,9.23
2023-05-05T23:32:10.942Z,9.00
2023-05-05T23:34:37.450Z,9.80
2023-05-05T23:37:06.090Z,9.37
2023-05-05T23:39:36.065Z,9.63
2023-05-05T23:42:02.595Z,9.87
2023-05-05T23:44:29.121Z,10.53
2023-05-05T23:46:55.636Z,10.90
2023-05-05T23:49:23.599Z,10.60
2023-05-05T23:51:50.123Z,11.07
2023-05-05T23:54:16.615Z,10.40
2023-05-05T23:56:43.199Z,10.93
2023-05-05T23:59:09.733Z,11.77
